Centennial, WY

12:09 PM MDT on September 19, 2014 (GMT -0600)
Aspen Country | Change Station
CLOSE
Current Station
Personal Weather Station
Location: Centennial, WY
Elevation: 8050 ft
Nearby Weather Stations

Elev 8050 ft 41.29 °N, 106.15 °W | Updated 8 minutes ago

Clear
Clear
71.0 °F
Feels Like 77 °F
N
6.0
Wind Variable Wind from WNW
Gusts 6.0 mph

Today
High -- | Low -- °F
--% Chance of Precip.
Yesterday
High -- | Low -- °F
Precip. -- in
6:49 AM 7:06 PM
Waning Crescent, 18% visible
Pressure 29.80 in
Visibility 10.0 miles
Clouds Clear
Heat Index 77 °F
Dew Point 46 °F
Humidity 40%
Rainfall 0.00 in
Snow Depth 0 in , 0 in , 0 in
UV 8 out of 12
Pollen 6.70 out of 12
Air Quality Not available.
Flu Activity Not available.
METAR KLAR 191753Z AUTO 25012G18KT 10SM CLR 24/05 A3014 RMK AO2 SLP089 T02390050 10239 20083 57009

More Conditions Fewer Conditions

Pressure 29.80 in
Visibility 10.0 miles
Clouds Clear
Heat Index 77 °F
Dew Point 46 °F
Humidity 40%
Rainfall 0.00 in
Snow Depth 0 in , 0 in , 0 in
UV 8 out of 12
Pollen 6.70 out of 12
Air Quality Not available.
Flu Activity Not available.
METAR KLAR 191753Z AUTO 25012G18KT 10SM CLR 24/05 A3014 RMK AO2 SLP089 T02390050 10239 20083 57009

More Conditions Fewer Conditions

10-Day Weather Forecast

Almanac

Astronomy

Sep. 19, 2014 Rise Set
Actual Time 6:49 AM MDT 7:06 PM MDT
Civil Twilight 6:21 AM MDT 7:34 PM MDT
Nautical Twilight 5:48 AM MDT 8:06 PM MDT
Astronomical Twilight 5:15 AM MDT 8:39 PM MDT
Moon 2:34 AM MDT 4:39 PM MDT
Length of Visible Light 13h 12m
Length of Day
12h 17m
Tomorrow will be 2m 44s shorter.
Waning Crescent, 18% of the Moon is Illuminated
Today
Waning Crescent
Sep 24
New
Oct 1
First Quarter
Oct 8
Full
Oct 15
Last Quarter

Today's Extremes

State Highs State Lows

Community

WunderPhotos

Upload Photos

1,754,677 photos uploaded!

Nearby

Snow Depth

Station Depth Elevation
Phillips Bench 0 in 8200 ft
Reno Hill 0 in 8500 ft
Casper Mountain 0 in 7850 ft
Sand Lake 0 in 10050 ft
North French Creek 0 in 10130 ft

Earthquake Activity

City Distance Mag. Time & Date
No recent earthquake activity has been reported nearby.
Minimum magnitude displayed is 2.5.

Coastal Water Temperatures

Place Temperature
No Stations Reporting

Nearby Weather Stations